TimeMST,TemperatureF,Dew PointF,Humidity,Sea Level PressureIn,VisibilityMPH,Wind Direction,Wind SpeedMPH,Gust SpeedMPH,PrecipitationIn,Events,Conditions,WindDirDegrees,DateUTC
12:07 AM,1.4,-0.4,92,30.41,1.2,SW,6.9,-,0.00,Snow,Light Snow,230,2014-01-05 07:07:00
12:20 AM,1.4,-0.4,92,30.42,2.0,WSW,10.4,-,0.00,Snow,Light Snow,250,2014-01-05 07:20:00
12:35 AM,1.4,-2.2,85,30.42,2.0,West,4.6,-,0.00,Snow,Light Snow,260,2014-01-05 07:35:00
12:53 AM,1.9,-0.9,88,30.70,2.5,West,6.9,-,0.00,Snow,Light Snow,280,2014-01-05 07:53:00
1:01 AM,1.4,-2.2,85,30.43,4.0,NW,6.9,-,0.00,Snow,Light Snow,320,2014-01-05 08:01:00
1:53 AM,1.9,-2.9,80,30.74,3.0,NW,16.1,20.7,0.00,Snow,Light Snow,320,2014-01-05 08:53:00
2:16 AM,1.4,-5.8,72,30.48,2.0,NNW,12.7,-,0.00,Snow,Light Snow,340,2014-01-05 09:16:00
2:43 AM,-0.4,-5.8,78,30.49,2.0,NNW,10.4,-,0.00,,Overcast,330,2014-01-05 09:43:00
2:53 AM,-2.0,-6.0,83,30.79,2.0,NW,8.1,-,0.00,,Overcast,320,2014-01-05 09:53:00
3:53 AM,-7.1,-11.9,79,30.85,2.0,North,8.1,-,0.00,,Mostly Cloudy,350,2014-01-05 10:53:00
4:31 AM,-7.6,-14.8,71,30.57,2.0,North,9.2,-,N/A,,Mostly Cloudy,350,2014-01-05 11:31:00
4:41 AM,-7.6,-14.8,71,30.58,2.0,NNW,12.7,-,N/A,,Mostly Cloudy,340,2014-01-05 11:41:00
4:50 AM,-7.6,-14.8,71,30.57,10.0,NNW,12.7,-,N/A,,Mostly Cloudy,340,2014-01-05 11:50:00
4:53 AM,-8.0,-15.0,71,30.88,10.0,NNW,12.7,-,N/A,,Mostly Cloudy,340,2014-01-05 11:53:00
5:53 AM,-9.0,-14.1,79,30.93,10.0,Calm,Calm,-,N/A,,Overcast,0,2014-01-05 12:53:00
6:53 AM,-11.0,-18.9,68,30.96,10.0,SSW,5.8,-,N/A,,Mostly Cloudy,200,2014-01-05 13:53:00
7:53 AM,-16.1,-22.0,74,30.98,10.0,West,9.2,-,N/A,,Clear,280,2014-01-05 14:53:00
8:53 AM,-18.0,-25.1,70,31.01,10.0,WNW,5.8,-,N/A,,Clear,290,2014-01-05 15:53:00
9:53 AM,-11.9,-18.0,74,31.00,10.0,South,5.8,-,N/A,,Clear,180,2014-01-05 16:53:00
10:53 AM,-8.0,-16.1,68,30.98,10.0,South,4.6,-,0.01,,Clear,180,2014-01-05 17:53:00
11:53 AM,-5.1,-15.0,62,30.95,10.0,SW,8.1,-,N/A,,Clear,230,2014-01-05 18:53:00
12:53 PM,-2.9,-14.1,59,30.90,10.0,SSW,8.1,-,N/A,,Clear,210,2014-01-05 19:53:00
1:53 PM,-2.0,-14.1,57,30.86,10.0,SSW,5.8,-,N/A,,Clear,200,2014-01-05 20:53:00
2:53 PM,-2.0,-15.0,54,30.83,10.0,South,5.8,-,N/A,,Clear,170,2014-01-05 21:53:00
3:53 PM,-2.0,-14.1,57,30.82,10.0,SSW,3.5,-,N/A,,Clear,210,2014-01-05 22:53:00
4:53 PM,-8.0,-17.0,65,30.79,10.0,South,9.2,-,N/A,,Clear,190,2014-01-05 23:53:00
5:53 PM,-2.9,-14.1,59,30.75,10.0,South,11.5,-,N/A,,Clear,190,2014-01-06 00:53:00
6:53 PM,3.0,-9.0,57,30.70,10.0,SSW,16.1,-,N/A,,Clear,210,2014-01-06 01:53:00
7:53 PM,3.9,-6.0,64,30.67,10.0,SSW,15.0,-,N/A,,Clear,210,2014-01-06 02:53:00
8:53 PM,6.1,-4.0,63,30.64,10.0,SSW,18.4,-,N/A,,Clear,210,2014-01-06 03:53:00
9:53 PM,7.0,-4.0,61,30.61,10.0,SSW,17.3,-,N/A,,Clear,210,2014-01-06 04:53:00
10:53 PM,8.1,-2.0,64,30.59,10.0,SSW,19.6,-,N/A,,Clear,210,2014-01-06 05:53:00
11:53 PM,9.0,-0.0,67,30.57,10.0,SSW,16.1,-,N/A,,Clear,210,2014-01-06 06:53:00